Check out our new PWSWeather beta!
PWSweather.com
Personal Weather Stations
Station Observations
RW002
Arlington, VA 22207

Arlington, VA 22207

Lat: 38.8955, Lon: -77.1443

Elevation: 390

Station Type: Davis Vantage Pro II

jp_angelone@msn.com

High Low Average
Temperature 56.1°F13.4°C 49.1°F9.5°C 53.0°F11.7°C
Dew Point 41.5°F5.3°C 35.4°F1.9°C 39.3°F4.1°C
Winds 13.0 mph 20.9 kmh Calm Calm 3.0 mph WNW4.8 kmh WNW
Wind Gusts 25.0 mph40.2 kmh -- 12.0 mph19.3 kmh
Humidity 71% 55% 60%
Pressure 29.82 in1009.8 mb 29.53 in1000.0 mb -
Precipitation 0.00 in0.0 mm - -
Hour Temp Dew Point Humidity Winds Wind Gusts Pressure Precip Precip Rate Daily Precip Total
12:02 AM 49.3°F9.6°C 39.9°F4.4°C 70% Calm Calm 2.0 mph3.2 kmh 29.55 in1000.7 mb 0.00 in0.0 mm 0.00 in0.0 mm 0.00 in0.0 mm
12:07 AM 49.2°F9.6°C 39.8°F4.3°C 70% 3.0 mph WNW4.8 kmh WNW 3.0 mph4.8 kmh 29.55 in1000.7 mb 0.00 in0.0 mm 0.00 in0.0 mm 0.00 in0.0 mm
12:12 AM 49.2°F9.6°C 40.2°F4.6°C 71% Calm Calm 3.0 mph4.8 kmh 29.55 in1000.7 mb 0.00 in0.0 mm 0.00 in0.0 mm 0.00 in0.0 mm
12:17 AM 49.1°F9.5°C 40.1°F4.5°C 71% Calm Calm -- 29.55 in1000.7 mb 0.00 in0.0 mm 0.00 in0.0 mm 0.00 in0.0 mm
12:22 AM 49.1°F9.5°C 40.1°F4.5°C 71% Calm Calm 1.0 mph1.6 kmh 29.55 in1000.7 mb 0.00 in0.0 mm 0.00 in0.0 mm 0.00 in0.0 mm
12:27 AM 49.2°F9.6°C 40.2°F4.6°C 71% Calm Calm -- 29.55 in1000.7 mb 0.00 in0.0 mm 0.00 in0.0 mm 0.00 in0.0 mm
12:32 AM 49.2°F9.6°C 40.2°F4.6°C 71% Calm Calm -- 29.55 in1000.7 mb 0.00 in0.0 mm 0.00 in0.0 mm 0.00 in0.0 mm
12:37 AM 49.2°F9.6°C 40.2°F4.6°C 71% Calm Calm -- 29.55 in1000.7 mb 0.00 in0.0 mm 0.00 in0.0 mm 0.00 in0.0 mm
12:42 AM 49.2°F9.6°C 40.2°F4.6°C 71% Calm Calm -- 29.55 in1000.7 mb 0.00 in0.0 mm 0.00 in0.0 mm 0.00 in0.0 mm
12:47 AM 49.2°F9.6°C 40.2°F4.6°C 71% Calm Calm -- 29.55 in1000.7 mb 0.00 in0.0 mm 0.00 in0.0 mm 0.00 in0.0 mm
12:52 AM 49.4°F9.7°C 40.4°F4.7°C 71% Calm Calm -- 29.55 in1000.7 mb 0.00 in0.0 mm 0.00 in0.0 mm 0.00 in0.0 mm
12:57 AM 49.4°F9.7°C 40.4°F4.7°C 71% Calm Calm -- 29.55 in1000.7 mb 0.00 in0.0 mm 0.00 in0.0 mm 0.00 in0.0 mm
01:02 AM 49.5°F9.7°C 40.1°F4.5°C 70% Calm Calm -- 29.55 in1000.7 mb 0.00 in0.0 mm 0.00 in0.0 mm 0.00 in0.0 mm
01:07 AM 49.7°F9.8°C 40.3°F4.6°C 70% Calm Calm -- 29.54 in1000.3 mb 0.00 in0.0 mm 0.00 in0.0 mm 0.00 in0.0 mm
01:12 AM 49.6°F9.8°C 40.2°F4.6°C 70% Calm Calm 6.0 mph9.7 kmh 29.54 in1000.3 mb 0.00 in0.0 mm 0.00 in0.0 mm 0.00 in0.0 mm
01:17 AM 49.8°F9.9°C 40.4°F4.7°C 70% Calm Calm 6.0 mph9.7 kmh 29.54 in1000.3 mb 0.00 in0.0 mm 0.00 in0.0 mm 0.00 in0.0 mm
01:22 AM 50.4°F10.2°C 40.6°F4.8°C 69% Calm Calm 5.0 mph8.0 kmh 29.54 in1000.3 mb 0.00 in0.0 mm 0.00 in0.0 mm 0.00 in0.0 mm
01:27 AM 50.6°F10.3°C 40.4°F4.7°C 68% 5.0 mph SW8.0 kmh SW 5.0 mph8.0 kmh 29.54 in1000.3 mb 0.00 in0.0 mm 0.00 in0.0 mm 0.00 in0.0 mm
01:32 AM 51.0°F10.6°C 40.8°F4.9°C 68% Calm Calm 10.0 mph16.1 kmh 29.54 in1000.3 mb 0.00 in0.0 mm 0.00 in0.0 mm 0.00 in0.0 mm
01:37 AM 51.0°F10.6°C 40.8°F4.9°C 68% Calm Calm 9.0 mph14.5 kmh 29.54 in1000.3 mb 0.00 in0.0 mm 0.00 in0.0 mm 0.00 in0.0 mm
01:42 AM 51.1°F10.6°C 40.5°F4.7°C 67% 2.0 mph W3.2 kmh W 9.0 mph14.5 kmh 29.54 in1000.3 mb 0.00 in0.0 mm 0.00 in0.0 mm 0.00 in0.0 mm
01:47 AM 51.1°F10.6°C 40.9°F4.9°C 68% Calm Calm 10.0 mph16.1 kmh 29.54 in1000.3 mb 0.00 in0.0 mm 0.00 in0.0 mm 0.00 in0.0 mm
01:52 AM 51.1°F10.6°C 40.9°F4.9°C 68% Calm Calm 10.0 mph16.1 kmh 29.54 in1000.3 mb 0.00 in0.0 mm 0.00 in0.0 mm 0.00 in0.0 mm
01:57 AM 51.2°F10.7°C 41.0°F5.0°C 68% 1.0 mph N1.6 kmh N 9.0 mph14.5 kmh 29.54 in1000.3 mb 0.00 in0.0 mm 0.00 in0.0 mm 0.00 in0.0 mm
02:02 AM 51.2°F10.7°C 41.0°F5.0°C 68% Calm Calm 4.0 mph6.4 kmh 29.54 in1000.3 mb 0.00 in0.0 mm 0.00 in0.0 mm 0.00 in0.0 mm
02:07 AM 51.2°F10.7°C 41.0°F5.0°C 68% Calm Calm 1.0 mph1.6 kmh 29.54 in1000.3 mb 0.00 in0.0 mm 0.00 in0.0 mm 0.00 in0.0 mm
02:12 AM 51.2°F10.7°C 41.0°F5.0°C 68% Calm Calm 2.0 mph3.2 kmh 29.54 in1000.3 mb 0.00 in0.0 mm 0.00 in0.0 mm 0.00 in0.0 mm
02:17 AM 51.2°F10.7°C 41.0°F5.0°C 68% Calm Calm 3.0 mph4.8 kmh 29.53 in1000.0 mb 0.00 in0.0 mm 0.00 in0.0 mm 0.00 in0.0 mm
02:22 AM 51.0°F10.6°C 41.2°F5.1°C 69% 3.0 mph WSW4.8 kmh WSW 6.0 mph9.7 kmh 29.53 in1000.0 mb 0.00 in0.0 mm 0.00 in0.0 mm 0.00 in0.0 mm
02:27 AM 51.0°F10.6°C 41.2°F5.1°C 69% 1.0 mph WSW1.6 kmh WSW 1.0 mph1.6 kmh 29.53 in1000.0 mb 0.00 in0.0 mm 0.00 in0.0 mm 0.00 in0.0 mm
02:32 AM 51.0°F10.6°C 41.2°F5.1°C 69% Calm Calm 5.0 mph8.0 kmh 29.53 in1000.0 mb 0.00 in0.0 mm 0.00 in0.0 mm 0.00 in0.0 mm
02:37 AM 51.0°F10.6°C 41.2°F5.1°C 69% Calm Calm 6.0 mph9.7 kmh 29.53 in1000.0 mb 0.00 in0.0 mm 0.00 in0.0 mm 0.00 in0.0 mm
02:42 AM 51.1°F10.6°C 41.3°F5.2°C 69% Calm Calm 4.0 mph6.4 kmh 29.53 in1000.0 mb 0.00 in0.0 mm 0.00 in0.0 mm 0.00 in0.0 mm
02:47 AM 51.0°F10.6°C 41.2°F5.1°C 69% Calm Calm 1.0 mph1.6 kmh 29.53 in1000.0 mb 0.00 in0.0 mm 0.00 in0.0 mm 0.00 in0.0 mm
02:52 AM 51.0°F10.6°C 41.2°F5.1°C 69% Calm Calm 2.0 mph3.2 kmh 29.53 in1000.0 mb 0.00 in0.0 mm 0.00 in0.0 mm 0.00 in0.0 mm
02:57 AM 51.0°F10.6°C 41.2°F5.1°C 69% Calm Calm -- 29.53 in1000.0 mb 0.00 in0.0 mm 0.00 in0.0 mm 0.00 in0.0 mm
03:02 AM 50.9°F10.5°C 41.5°F5.3°C 70% Calm Calm -- 29.54 in1000.3 mb 0.00 in0.0 mm 0.00 in0.0 mm 0.00 in0.0 mm
03:07 AM 50.9°F10.5°C 41.1°F5.1°C 69% Calm Calm -- 29.54 in1000.3 mb 0.00 in0.0 mm 0.00 in0.0 mm 0.00 in0.0 mm
03:12 AM 51.2°F10.7°C 41.4°F5.2°C 69% Calm Calm 8.0 mph12.9 kmh 29.54 in1000.3 mb 0.00 in0.0 mm 0.00 in0.0 mm 0.00 in0.0 mm
03:17 AM 52.0°F11.1°C 41.0°F5.0°C 66% 4.0 mph NNE6.4 kmh NNE 12.0 mph19.3 kmh 29.54 in1000.3 mb 0.00 in0.0 mm 0.00 in0.0 mm 0.00 in0.0 mm
03:22 AM 52.1°F11.2°C 41.1°F5.1°C 66% 7.0 mph WSW11.3 kmh WSW 12.0 mph19.3 kmh 29.53 in1000.0 mb 0.00 in0.0 mm 0.00 in0.0 mm 0.00 in0.0 mm
03:27 AM 52.3°F11.3°C 40.9°F4.9°C 65% 6.0 mph W9.7 kmh W 17.0 mph27.4 kmh 29.54 in1000.3 mb 0.00 in0.0 mm 0.00 in0.0 mm 0.00 in0.0 mm
03:32 AM 52.4°F11.3°C 41.0°F5.0°C 65% 7.0 mph NW11.3 kmh NW 17.0 mph27.4 kmh 29.55 in1000.7 mb 0.00 in0.0 mm 0.00 in0.0 mm 0.00 in0.0 mm
03:37 AM 52.5°F11.4°C 40.7°F4.8°C 64% Calm Calm 17.0 mph27.4 kmh 29.55 in1000.7 mb 0.00 in0.0 mm 0.00 in0.0 mm 0.00 in0.0 mm
03:42 AM 52.5°F11.4°C 40.7°F4.8°C 64% 4.0 mph N6.4 kmh N 17.0 mph27.4 kmh 29.55 in1000.7 mb 0.00 in0.0 mm 0.00 in0.0 mm 0.00 in0.0 mm
03:47 AM 52.6°F11.4°C 40.8°F4.9°C 64% 4.0 mph WSW6.4 kmh WSW 10.0 mph16.1 kmh 29.55 in1000.7 mb 0.00 in0.0 mm 0.00 in0.0 mm 0.00 in0.0 mm
03:52 AM 52.7°F11.5°C 40.5°F4.7°C 63% 2.0 mph SW3.2 kmh SW 18.0 mph29.0 kmh 29.56 in1001.0 mb 0.00 in0.0 mm 0.00 in0.0 mm 0.00 in0.0 mm
03:57 AM 52.8°F11.6°C 40.6°F4.8°C 63% 6.0 mph S9.7 kmh S 18.0 mph29.0 kmh 29.56 in1001.0 mb 0.00 in0.0 mm 0.00 in0.0 mm 0.00 in0.0 mm
04:02 AM 52.8°F11.6°C 40.6°F4.8°C 63% Calm Calm 18.0 mph29.0 kmh 29.56 in1001.0 mb 0.00 in0.0 mm 0.00 in0.0 mm 0.00 in0.0 mm
04:07 AM 52.6°F11.4°C 40.4°F4.7°C 63% Calm Calm 18.0 mph29.0 kmh 29.56 in1001.0 mb 0.00 in0.0 mm 0.00 in0.0 mm 0.00 in0.0 mm
04:12 AM 52.5°F11.4°C 40.7°F4.8°C 64% 5.0 mph SW8.0 kmh SW 15.0 mph24.1 kmh 29.56 in1001.0 mb 0.00 in0.0 mm 0.00 in0.0 mm 0.00 in0.0 mm
04:17 AM 52.4°F11.3°C 40.6°F4.8°C 64% Calm Calm 15.0 mph24.1 kmh 29.56 in1001.0 mb 0.00 in0.0 mm 0.00 in0.0 mm 0.00 in0.0 mm
04:22 AM 52.3°F11.3°C 40.5°F4.7°C 64% Calm Calm 15.0 mph24.1 kmh 29.56 in1001.0 mb 0.00 in0.0 mm 0.00 in0.0 mm 0.00 in0.0 mm
04:27 AM 52.2°F11.2°C 40.4°F4.7°C 64% Calm Calm 15.0 mph24.1 kmh 29.56 in1001.0 mb 0.00 in0.0 mm 0.00 in0.0 mm 0.00 in0.0 mm
04:32 AM 52.3°F11.3°C 40.5°F4.7°C 64% 1.0 mph NNW1.6 kmh NNW 17.0 mph27.4 kmh 29.56 in1001.0 mb 0.00 in0.0 mm 0.00 in0.0 mm 0.00 in0.0 mm
04:37 AM 52.3°F11.3°C 40.5°F4.7°C 64% 8.0 mph W12.9 kmh W 17.0 mph27.4 kmh 29.57 in1001.4 mb 0.00 in0.0 mm 0.00 in0.0 mm 0.00 in0.0 mm
04:42 AM 52.3°F11.3°C 40.5°F4.7°C 64% Calm Calm -- 29.57 in1001.4 mb 0.00 in0.0 mm 0.00 in0.0 mm 0.00 in0.0 mm
04:47 AM 52.2°F11.2°C 40.4°F4.7°C 64% Calm Calm 9.0 mph14.5 kmh 29.57 in1001.4 mb 0.00 in0.0 mm 0.00 in0.0 mm 0.00 in0.0 mm
04:52 AM 52.2°F11.2°C 40.4°F4.7°C 64% Calm Calm 9.0 mph14.5 kmh 29.57 in1001.4 mb 0.00 in0.0 mm 0.00 in0.0 mm 0.00 in0.0 mm
04:57 AM 52.2°F11.2°C 40.4°F4.7°C 64% 11.0 mph W17.7 kmh W 19.0 mph30.6 kmh 29.58 in1001.7 mb 0.00 in0.0 mm 0.00 in0.0 mm 0.00 in0.0 mm
05:02 AM 52.4°F11.3°C 40.2°F4.6°C 63% Calm Calm 19.0 mph30.6 kmh 29.58 in1001.7 mb 0.00 in0.0 mm 0.00 in0.0 mm 0.00 in0.0 mm
05:07 AM 52.3°F11.3°C 40.1°F4.5°C 63% Calm Calm 3.0 mph4.8 kmh 29.57 in1001.4 mb 0.00 in0.0 mm 0.00 in0.0 mm 0.00 in0.0 mm
05:12 AM 52.3°F11.3°C 40.1°F4.5°C 63% Calm Calm 10.0 mph16.1 kmh 29.57 in1001.4 mb 0.00 in0.0 mm 0.00 in0.0 mm 0.00 in0.0 mm
05:17 AM 52.2°F11.2°C 40.0°F4.4°C 63% Calm Calm 6.0 mph9.7 kmh 29.58 in1001.7 mb 0.00 in0.0 mm 0.00 in0.0 mm 0.00 in0.0 mm
05:22 AM 52.1°F11.2°C 40.3°F4.6°C 64% 4.0 mph S6.4 kmh S 6.0 mph9.7 kmh 29.58 in1001.7 mb 0.00 in0.0 mm 0.00 in0.0 mm 0.00 in0.0 mm
05:27 AM 52.1°F11.2°C 39.9°F4.4°C 63% 2.0 mph SW3.2 kmh SW 13.0 mph20.9 kmh 29.58 in1001.7 mb 0.00 in0.0 mm 0.00 in0.0 mm 0.00 in0.0 mm
05:32 AM 52.0°F11.1°C 39.8°F4.3°C 63% 5.0 mph WSW8.0 kmh WSW 13.0 mph20.9 kmh 29.59 in1002.0 mb 0.00 in0.0 mm 0.00 in0.0 mm 0.00 in0.0 mm
05:37 AM 51.9°F11.1°C 39.7°F4.3°C 63% 1.0 mph NW1.6 kmh NW 19.0 mph30.6 kmh 29.58 in1001.7 mb 0.00 in0.0 mm 0.00 in0.0 mm 0.00 in0.0 mm
05:42 AM 51.9°F11.1°C 39.7°F4.3°C 63% 13.0 mph N20.9 kmh N 19.0 mph30.6 kmh 29.59 in1002.0 mb 0.00 in0.0 mm 0.00 in0.0 mm 0.00 in0.0 mm
05:47 AM 52.0°F11.1°C 39.8°F4.3°C 63% Calm Calm 21.0 mph33.8 kmh 29.59 in1002.0 mb 0.00 in0.0 mm 0.00 in0.0 mm 0.00 in0.0 mm
05:52 AM 51.9°F11.1°C 40.1°F4.5°C 64% Calm Calm -- 29.60 in1002.4 mb 0.00 in0.0 mm 0.00 in0.0 mm 0.00 in0.0 mm
05:57 AM 51.8°F11.0°C 39.6°F4.2°C 63% 3.0 mph NW4.8 kmh NW 6.0 mph9.7 kmh 29.59 in1002.0 mb 0.00 in0.0 mm 0.00 in0.0 mm 0.00 in0.0 mm
06:02 AM 51.7°F10.9°C 39.5°F4.2°C 63% Calm Calm 8.0 mph12.9 kmh 29.59 in1002.0 mb 0.00 in0.0 mm 0.00 in0.0 mm 0.00 in0.0 mm
06:07 AM 51.7°F10.9°C 39.5°F4.2°C 63% 4.0 mph WSW6.4 kmh WSW 8.0 mph12.9 kmh 29.59 in1002.0 mb 0.00 in0.0 mm 0.00 in0.0 mm 0.00 in0.0 mm
06:12 AM 51.6°F10.9°C 39.8°F4.3°C 64% Calm Calm 2.0 mph3.2 kmh 29.60 in1002.4 mb 0.00 in0.0 mm 0.00 in0.0 mm 0.00 in0.0 mm
06:17 AM 51.5°F10.8°C 39.3°F4.1°C 63% Calm Calm 8.0 mph12.9 kmh 29.60 in1002.4 mb 0.00 in0.0 mm 0.00 in0.0 mm 0.00 in0.0 mm
06:22 AM 51.6°F10.9°C 39.4°F4.1°C 63% Calm Calm 8.0 mph12.9 kmh 29.60 in1002.4 mb 0.00 in0.0 mm 0.00 in0.0 mm 0.00 in0.0 mm
06:27 AM 51.7°F10.9°C 39.5°F4.2°C 63% 2.0 mph W3.2 kmh W 21.0 mph33.8 kmh 29.60 in1002.4 mb 0.00 in0.0 mm 0.00 in0.0 mm 0.00 in0.0 mm
06:32 AM 51.7°F10.9°C 39.5°F4.2°C 63% Calm Calm 21.0 mph33.8 kmh 29.60 in1002.4 mb 0.00 in0.0 mm 0.00 in0.0 mm 0.00 in0.0 mm
06:37 AM 51.7°F10.9°C 39.5°F4.2°C 63% Calm Calm 10.0 mph16.1 kmh 29.60 in1002.4 mb 0.00 in0.0 mm 0.00 in0.0 mm 0.00 in0.0 mm
06:42 AM 51.6°F10.9°C 39.4°F4.1°C 63% Calm Calm 3.0 mph4.8 kmh 29.60 in1002.4 mb 0.00 in0.0 mm 0.00 in0.0 mm 0.00 in0.0 mm
06:47 AM 51.6°F10.9°C 39.4°F4.1°C 63% Calm Calm 7.0 mph11.3 kmh 29.60 in1002.4 mb 0.00 in0.0 mm 0.00 in0.0 mm 0.00 in0.0 mm
06:52 AM 51.7°F10.9°C 39.5°F4.2°C 63% 3.0 mph W4.8 kmh W 3.0 mph4.8 kmh 29.61 in1002.7 mb 0.00 in0.0 mm 0.00 in0.0 mm 0.00 in0.0 mm
06:57 AM 51.6°F10.9°C 39.4°F4.1°C 63% 1.0 mph W1.6 kmh W 2.0 mph3.2 kmh 29.60 in1002.4 mb 0.00 in0.0 mm 0.00 in0.0 mm 0.00 in0.0 mm
07:02 AM 51.7°F10.9°C 39.5°F4.2°C 63% Calm Calm 9.0 mph14.5 kmh 29.61 in1002.7 mb 0.00 in0.0 mm 0.00 in0.0 mm 0.00 in0.0 mm
07:07 AM 51.8°F11.0°C 39.6°F4.2°C 63% 2.0 mph WNW3.2 kmh WNW 9.0 mph14.5 kmh 29.61 in1002.7 mb 0.00 in0.0 mm 0.00 in0.0 mm 0.00 in0.0 mm
07:12 AM 51.8°F11.0°C 39.2°F4.0°C 62% 1.0 mph NNW1.6 kmh NNW 9.0 mph14.5 kmh 29.61 in1002.7 mb 0.00 in0.0 mm 0.00 in0.0 mm 0.00 in0.0 mm
07:17 AM 51.8°F11.0°C 39.2°F4.0°C 62% 1.0 mph NNW1.6 kmh NNW 9.0 mph14.5 kmh 29.61 in1002.7 mb 0.00 in0.0 mm 0.00 in0.0 mm 0.00 in0.0 mm
07:22 AM 51.8°F11.0°C 39.2°F4.0°C 62% 1.0 mph NNW1.6 kmh NNW 6.0 mph9.7 kmh 29.61 in1002.7 mb 0.00 in0.0 mm 0.00 in0.0 mm 0.00 in0.0 mm
07:27 AM 51.9°F11.1°C 39.3°F4.1°C 62% 4.0 mph NNW6.4 kmh NNW 9.0 mph14.5 kmh 29.61 in1002.7 mb 0.00 in0.0 mm 0.00 in0.0 mm 0.00 in0.0 mm
07:32 AM 52.0°F11.1°C 39.4°F4.1°C 62% Calm Calm -- 29.62 in1003.0 mb 0.00 in0.0 mm 0.00 in0.0 mm 0.00 in0.0 mm
07:37 AM 52.1°F11.2°C 39.5°F4.2°C 62% 2.0 mph NW3.2 kmh NW 9.0 mph14.5 kmh 29.62 in1003.0 mb 0.00 in0.0 mm 0.00 in0.0 mm 0.00 in0.0 mm
07:42 AM 52.1°F11.2°C 39.5°F4.2°C 62% 6.0 mph NW9.7 kmh NW 10.0 mph16.1 kmh 29.62 in1003.0 mb 0.00 in0.0 mm 0.00 in0.0 mm 0.00 in0.0 mm
07:47 AM 52.2°F11.2°C 39.6°F4.2°C 62% 4.0 mph W6.4 kmh W 10.0 mph16.1 kmh 29.62 in1003.0 mb 0.00 in0.0 mm 0.00 in0.0 mm 0.00 in0.0 mm
07:52 AM 52.4°F11.3°C 39.8°F4.3°C 62% 5.0 mph SW8.0 kmh SW 10.0 mph16.1 kmh 29.62 in1003.0 mb 0.00 in0.0 mm 0.00 in0.0 mm 0.00 in0.0 mm
07:57 AM 52.4°F11.3°C 39.8°F4.3°C 62% 4.0 mph NW6.4 kmh NW 15.0 mph24.1 kmh 29.62 in1003.0 mb 0.00 in0.0 mm 0.00 in0.0 mm 0.00 in0.0 mm
08:02 AM 52.6°F11.4°C 40.0°F4.4°C 62% Calm Calm 15.0 mph24.1 kmh 29.62 in1003.0 mb 0.00 in0.0 mm 0.00 in0.0 mm 0.00 in0.0 mm
08:07 AM 53.0°F11.7°C 39.9°F4.4°C 61% 1.0 mph WNW1.6 kmh WNW 15.0 mph24.1 kmh 29.62 in1003.0 mb 0.00 in0.0 mm 0.00 in0.0 mm 0.00 in0.0 mm
08:12 AM 53.3°F11.8°C 39.8°F4.3°C 60% 5.0 mph NW8.0 kmh NW 15.0 mph24.1 kmh 29.62 in1003.0 mb 0.00 in0.0 mm 0.00 in0.0 mm 0.00 in0.0 mm
08:17 AM 53.7°F12.1°C 40.6°F4.8°C 61% 3.0 mph WSW4.8 kmh WSW 11.0 mph17.7 kmh 29.62 in1003.0 mb 0.00 in0.0 mm 0.00 in0.0 mm 0.00 in0.0 mm
08:22 AM 53.9°F12.2°C 40.3°F4.6°C 60% 11.0 mph N17.7 kmh N 11.0 mph17.7 kmh 29.62 in1003.0 mb 0.00 in0.0 mm 0.00 in0.0 mm 0.00 in0.0 mm
08:27 AM 53.6°F12.0°C 39.6°F4.2°C 59% 2.0 mph NNW3.2 kmh NNW 16.0 mph25.7 kmh 29.62 in1003.0 mb 0.00 in0.0 mm 0.00 in0.0 mm 0.00 in0.0 mm
08:32 AM 53.6°F12.0°C 39.6°F4.2°C 59% 9.0 mph NNW14.5 kmh NNW 17.0 mph27.4 kmh 29.62 in1003.0 mb 0.00 in0.0 mm 0.00 in0.0 mm 0.00 in0.0 mm
08:37 AM 53.5°F11.9°C 40.0°F4.4°C 60% 3.0 mph W4.8 kmh W 23.0 mph37.0 kmh 29.61 in1002.7 mb 0.00 in0.0 mm 0.00 in0.0 mm 0.00 in0.0 mm
08:42 AM 53.7°F12.1°C 40.1°F4.5°C 60% 4.0 mph WSW6.4 kmh WSW 23.0 mph37.0 kmh 29.61 in1002.7 mb 0.00 in0.0 mm 0.00 in0.0 mm 0.00 in0.0 mm
08:47 AM 53.9°F12.2°C 40.3°F4.6°C 60% 3.0 mph WNW4.8 kmh WNW 23.0 mph37.0 kmh 29.61 in1002.7 mb 0.00 in0.0 mm 0.00 in0.0 mm 0.00 in0.0 mm
08:52 AM 54.0°F12.2°C 40.0°F4.4°C 59% 10.0 mph N16.1 kmh N 23.0 mph37.0 kmh 29.61 in1002.7 mb 0.00 in0.0 mm 0.00 in0.0 mm 0.00 in0.0 mm
08:57 AM 53.9°F12.2°C 39.9°F4.4°C 59% 9.0 mph WNW14.5 kmh WNW 21.0 mph33.8 kmh 29.61 in1002.7 mb 0.00 in0.0 mm 0.00 in0.0 mm 0.00 in0.0 mm
09:02 AM 53.9°F12.2°C 39.9°F4.4°C 59% 6.0 mph NW9.7 kmh NW 21.0 mph33.8 kmh 29.61 in1002.7 mb 0.00 in0.0 mm 0.00 in0.0 mm 0.00 in0.0 mm
09:07 AM 54.0°F12.2°C 40.9°F4.9°C 61% 6.0 mph W9.7 kmh W 17.0 mph27.4 kmh 29.61 in1002.7 mb 0.00 in0.0 mm 0.00 in0.0 mm 0.00 in0.0 mm
09:12 AM 54.0°F12.2°C 40.0°F4.4°C 59% 8.0 mph WNW12.9 kmh WNW 17.0 mph27.4 kmh 29.61 in1002.7 mb 0.00 in0.0 mm 0.00 in0.0 mm 0.00 in0.0 mm
09:17 AM 54.1°F12.3°C 40.1°F4.5°C 59% 12.0 mph N19.3 kmh N 16.0 mph25.7 kmh 29.61 in1002.7 mb 0.00 in0.0 mm 0.00 in0.0 mm 0.00 in0.0 mm
09:22 AM 54.3°F12.4°C 40.3°F4.6°C 59% 6.0 mph SW9.7 kmh SW 17.0 mph27.4 kmh 29.61 in1002.7 mb 0.00 in0.0 mm 0.00 in0.0 mm 0.00 in0.0 mm
09:27 AM 54.4°F12.4°C 39.9°F4.4°C 58% 5.0 mph WSW8.0 kmh WSW 17.0 mph27.4 kmh 29.61 in1002.7 mb 0.00 in0.0 mm 0.00 in0.0 mm 0.00 in0.0 mm
09:32 AM 54.4°F12.4°C 39.9°F4.4°C 58% 4.0 mph NW6.4 kmh NW 17.0 mph27.4 kmh 29.61 in1002.7 mb 0.00 in0.0 mm 0.00 in0.0 mm 0.00 in0.0 mm
09:37 AM 54.4°F12.4°C 39.9°F4.4°C 58% 1.0 mph NW1.6 kmh NW 17.0 mph27.4 kmh 29.61 in1002.7 mb 0.00 in0.0 mm 0.00 in0.0 mm 0.00 in0.0 mm
09:42 AM 54.4°F12.4°C 40.4°F4.7°C 59% 3.0 mph W4.8 kmh W 15.0 mph24.1 kmh 29.61 in1002.7 mb 0.00 in0.0 mm 0.00 in0.0 mm 0.00 in0.0 mm
09:47 AM 54.6°F12.6°C 40.1°F4.5°C 58% 1.0 mph NW1.6 kmh NW 15.0 mph24.1 kmh 29.62 in1003.0 mb 0.00 in0.0 mm 0.00 in0.0 mm 0.00 in0.0 mm
09:52 AM 55.0°F12.8°C 40.0°F4.4°C 57% 2.0 mph NW3.2 kmh NW 11.0 mph17.7 kmh 29.61 in1002.7 mb 0.00 in0.0 mm 0.00 in0.0 mm 0.00 in0.0 mm
09:57 AM 54.9°F12.7°C 40.0°F4.4°C 57% 8.0 mph N12.9 kmh N 22.0 mph35.4 kmh 29.62 in1003.0 mb 0.00 in0.0 mm 0.00 in0.0 mm 0.00 in0.0 mm
10:02 AM 54.8°F12.7°C 39.9°F4.4°C 57% 8.0 mph W12.9 kmh W 22.0 mph35.4 kmh 29.62 in1003.0 mb 0.00 in0.0 mm 0.00 in0.0 mm 0.00 in0.0 mm
10:07 AM 54.8°F12.7°C 39.9°F4.4°C 57% 3.0 mph NW4.8 kmh NW 22.0 mph35.4 kmh 29.62 in1003.0 mb 0.00 in0.0 mm 0.00 in0.0 mm 0.00 in0.0 mm
10:12 AM 54.9°F12.7°C 40.0°F4.4°C 57% 6.0 mph NNW9.7 kmh NNW 22.0 mph35.4 kmh 29.63 in1003.4 mb 0.00 in0.0 mm 0.00 in0.0 mm 0.00 in0.0 mm
10:17 AM 54.9°F12.7°C 40.0°F4.4°C 57% 6.0 mph NNW9.7 kmh NNW 17.0 mph27.4 kmh 29.63 in1003.4 mb 0.00 in0.0 mm 0.00 in0.0 mm 0.00 in0.0 mm
10:22 AM 55.0°F12.8°C 40.0°F4.4°C 57% 11.0 mph N17.7 kmh N 17.0 mph27.4 kmh 29.63 in1003.4 mb 0.00 in0.0 mm 0.00 in0.0 mm 0.00 in0.0 mm
10:27 AM 55.1°F12.8°C 39.7°F4.3°C 56% 6.0 mph WNW9.7 kmh WNW 18.0 mph29.0 kmh 29.64 in1003.7 mb 0.00 in0.0 mm 0.00 in0.0 mm 0.00 in0.0 mm
10:32 AM 55.2°F12.9°C 40.2°F4.6°C 57% 5.0 mph W8.0 kmh W 18.0 mph29.0 kmh 29.64 in1003.7 mb 0.00 in0.0 mm 0.00 in0.0 mm 0.00 in0.0 mm
10:37 AM 55.0°F12.8°C 39.6°F4.2°C 56% 5.0 mph NNW8.0 kmh NNW 21.0 mph33.8 kmh 29.64 in1003.7 mb 0.00 in0.0 mm 0.00 in0.0 mm 0.00 in0.0 mm
10:42 AM 55.2°F12.9°C 39.8°F4.3°C 56% 5.0 mph NW8.0 kmh NW 21.0 mph33.8 kmh 29.64 in1003.7 mb 0.00 in0.0 mm 0.00 in0.0 mm 0.00 in0.0 mm
10:47 AM 55.7°F13.2°C 40.2°F4.6°C 56% 5.0 mph NW8.0 kmh NW 21.0 mph33.8 kmh 29.64 in1003.7 mb 0.00 in0.0 mm 0.00 in0.0 mm 0.00 in0.0 mm
10:52 AM 55.6°F13.1°C 40.2°F4.6°C 56% 2.0 mph WSW3.2 kmh WSW 21.0 mph33.8 kmh 29.64 in1003.7 mb 0.00 in0.0 mm 0.00 in0.0 mm 0.00 in0.0 mm
10:57 AM 56.0°F13.3°C 40.1°F4.5°C 55% 1.0 mph NW1.6 kmh NW 16.0 mph25.7 kmh 29.64 in1003.7 mb 0.00 in0.0 mm 0.00 in0.0 mm 0.00 in0.0 mm
11:02 AM 56.0°F13.3°C 40.1°F4.5°C 55% 1.0 mph WNW1.6 kmh WNW 16.0 mph25.7 kmh 29.65 in1004.1 mb 0.00 in0.0 mm 0.00 in0.0 mm 0.00 in0.0 mm
11:07 AM 56.0°F13.3°C 40.1°F4.5°C 55% 3.0 mph WNW4.8 kmh WNW 14.0 mph22.5 kmh 29.64 in1003.7 mb 0.00 in0.0 mm 0.00 in0.0 mm 0.00 in0.0 mm
11:12 AM 56.1°F13.4°C 40.2°F4.6°C 55% 7.0 mph NNW11.3 kmh NNW 19.0 mph30.6 kmh 29.65 in1004.1 mb 0.00 in0.0 mm 0.00 in0.0 mm 0.00 in0.0 mm
11:17 AM 56.0°F13.3°C 40.1°F4.5°C 55% 5.0 mph N8.0 kmh N 19.0 mph30.6 kmh 29.65 in1004.1 mb 0.00 in0.0 mm 0.00 in0.0 mm 0.00 in0.0 mm
11:22 AM 55.3°F12.9°C 39.9°F4.4°C 56% 5.0 mph NNW8.0 kmh NNW 22.0 mph35.4 kmh 29.65 in1004.1 mb 0.00 in0.0 mm 0.00 in0.0 mm 0.00 in0.0 mm
11:27 AM 55.3°F12.9°C 39.9°F4.4°C 56% 5.0 mph W8.0 kmh W 22.0 mph35.4 kmh 29.67 in1004.7 mb 0.00 in0.0 mm 0.00 in0.0 mm 0.00 in0.0 mm
11:32 AM 54.9°F12.7°C 39.5°F4.2°C 56% 6.0 mph NNW9.7 kmh NNW 22.0 mph35.4 kmh 29.67 in1004.7 mb 0.00 in0.0 mm 0.00 in0.0 mm 0.00 in0.0 mm
11:37 AM 54.7°F12.6°C 39.3°F4.1°C 56% Calm Calm 22.0 mph35.4 kmh 29.67 in1004.7 mb 0.00 in0.0 mm 0.00 in0.0 mm 0.00 in0.0 mm
11:42 AM 54.8°F12.7°C 39.9°F4.4°C 57% 2.0 mph NNW3.2 kmh NNW 19.0 mph30.6 kmh 29.67 in1004.7 mb 0.00 in0.0 mm 0.00 in0.0 mm 0.00 in0.0 mm
11:47 AM 55.0°F12.8°C 39.6°F4.2°C 56% Calm Calm 19.0 mph30.6 kmh 29.66 in1004.4 mb 0.00 in0.0 mm 0.00 in0.0 mm 0.00 in0.0 mm
11:52 AM 55.0°F12.8°C 39.6°F4.2°C 56% Calm Calm 8.0 mph12.9 kmh 29.66 in1004.4 mb 0.00 in0.0 mm 0.00 in0.0 mm 0.00 in0.0 mm
11:57 AM 55.1°F12.8°C 39.7°F4.3°C 56% 2.0 mph WNW3.2 kmh WNW 9.0 mph14.5 kmh 29.66 in1004.4 mb 0.00 in0.0 mm 0.00 in0.0 mm 0.00 in0.0 mm
12:02 PM 54.9°F12.7°C 39.5°F4.2°C 56% 9.0 mph NW14.5 kmh NW 12.0 mph19.3 kmh 29.66 in1004.4 mb 0.00 in0.0 mm 0.00 in0.0 mm 0.00 in0.0 mm
12:07 PM 55.1°F12.8°C 39.7°F4.3°C 56% 1.0 mph NNW1.6 kmh NNW 16.0 mph25.7 kmh 29.66 in1004.4 mb 0.00 in0.0 mm 0.00 in0.0 mm 0.00 in0.0 mm
12:12 PM 55.3°F12.9°C 39.9°F4.4°C 56% 4.0 mph NW6.4 kmh NW 21.0 mph33.8 kmh 29.65 in1004.1 mb 0.00 in0.0 mm 0.00 in0.0 mm 0.00 in0.0 mm
12:17 PM 55.3°F12.9°C 39.9°F4.4°C 56% 10.0 mph N16.1 kmh N 21.0 mph33.8 kmh 29.66 in1004.4 mb 0.00 in0.0 mm 0.00 in0.0 mm 0.00 in0.0 mm
12:22 PM 55.4°F13.0°C 39.5°F4.2°C 55% 3.0 mph NW4.8 kmh NW 21.0 mph33.8 kmh 29.66 in1004.4 mb 0.00 in0.0 mm 0.00 in0.0 mm 0.00 in0.0 mm
12:27 PM 55.4°F13.0°C 39.5°F4.2°C 55% 5.0 mph NNW8.0 kmh NNW 21.0 mph33.8 kmh 29.66 in1004.4 mb 0.00 in0.0 mm 0.00 in0.0 mm 0.00 in0.0 mm
12:32 PM 55.1°F12.8°C 39.2°F4.0°C 55% 3.0 mph NW4.8 kmh NW 17.0 mph27.4 kmh 29.66 in1004.4 mb 0.00 in0.0 mm 0.00 in0.0 mm 0.00 in0.0 mm
12:37 PM 54.9°F12.7°C 39.0°F3.9°C 55% Calm Calm 17.0 mph27.4 kmh 29.66 in1004.4 mb 0.00 in0.0 mm 0.00 in0.0 mm 0.00 in0.0 mm
12:42 PM 55.1°F12.8°C 39.7°F4.3°C 56% 6.0 mph WNW9.7 kmh WNW 16.0 mph25.7 kmh 29.66 in1004.4 mb 0.00 in0.0 mm 0.00 in0.0 mm 0.00 in0.0 mm
12:47 PM 55.2°F12.9°C 39.3°F4.1°C 55% 9.0 mph NNW14.5 kmh NNW 16.0 mph25.7 kmh 29.66 in1004.4 mb 0.00 in0.0 mm 0.00 in0.0 mm 0.00 in0.0 mm
12:52 PM 55.3°F12.9°C 39.4°F4.1°C 55% 9.0 mph NNW14.5 kmh NNW 17.0 mph27.4 kmh 29.67 in1004.7 mb 0.00 in0.0 mm 0.00 in0.0 mm 0.00 in0.0 mm
12:57 PM 55.2°F12.9°C 39.3°F4.1°C 55% 6.0 mph N9.7 kmh N 17.0 mph27.4 kmh 29.67 in1004.7 mb 0.00 in0.0 mm 0.00 in0.0 mm 0.00 in0.0 mm
01:02 PM 55.0°F12.8°C 39.1°F3.9°C 55% 5.0 mph WNW8.0 kmh WNW 21.0 mph33.8 kmh 29.67 in1004.7 mb 0.00 in0.0 mm 0.00 in0.0 mm 0.00 in0.0 mm
01:07 PM 54.9°F12.7°C 39.0°F3.9°C 55% 2.0 mph NW3.2 kmh NW 21.0 mph33.8 kmh 29.67 in1004.7 mb 0.00 in0.0 mm 0.00 in0.0 mm 0.00 in0.0 mm
01:12 PM 55.0°F12.8°C 39.6°F4.2°C 56% 3.0 mph NW4.8 kmh NW 21.0 mph33.8 kmh 29.67 in1004.7 mb 0.00 in0.0 mm 0.00 in0.0 mm 0.00 in0.0 mm
01:17 PM 55.2°F12.9°C 39.8°F4.3°C 56% 2.0 mph NW3.2 kmh NW 21.0 mph33.8 kmh 29.67 in1004.7 mb 0.00 in0.0 mm 0.00 in0.0 mm 0.00 in0.0 mm
01:22 PM 55.2°F12.9°C 40.2°F4.6°C 57% Calm Calm 12.0 mph19.3 kmh 29.66 in1004.4 mb 0.00 in0.0 mm 0.00 in0.0 mm 0.00 in0.0 mm
01:27 PM 55.3°F12.9°C 39.9°F4.4°C 56% 3.0 mph SW4.8 kmh SW 12.0 mph19.3 kmh 29.67 in1004.7 mb 0.00 in0.0 mm 0.00 in0.0 mm 0.00 in0.0 mm
01:32 PM 55.4°F13.0°C 40.0°F4.4°C 56% 2.0 mph NW3.2 kmh NW 6.0 mph9.7 kmh 29.67 in1004.7 mb 0.00 in0.0 mm 0.00 in0.0 mm 0.00 in0.0 mm
01:37 PM 55.2°F12.9°C 39.3°F4.1°C 55% 8.0 mph NNW12.9 kmh NNW 14.0 mph22.5 kmh 29.67 in1004.7 mb 0.00 in0.0 mm 0.00 in0.0 mm 0.00 in0.0 mm
01:42 PM 55.0°F12.8°C 39.6°F4.2°C 56% 4.0 mph NNW6.4 kmh NNW 14.0 mph22.5 kmh 29.67 in1004.7 mb 0.00 in0.0 mm 0.00 in0.0 mm 0.00 in0.0 mm
01:47 PM 55.0°F12.8°C 39.6°F4.2°C 56% Calm Calm 14.0 mph22.5 kmh 29.68 in1005.1 mb 0.00 in0.0 mm 0.00 in0.0 mm 0.00 in0.0 mm
01:52 PM 55.1°F12.8°C 39.7°F4.3°C 56% 6.0 mph NNW9.7 kmh NNW 14.0 mph22.5 kmh 29.67 in1004.7 mb 0.00 in0.0 mm 0.00 in0.0 mm 0.00 in0.0 mm
01:57 PM 55.1°F12.8°C 39.7°F4.3°C 56% 6.0 mph NW9.7 kmh NW 11.0 mph17.7 kmh 29.67 in1004.7 mb 0.00 in0.0 mm 0.00 in0.0 mm 0.00 in0.0 mm
02:02 PM 55.1°F12.8°C 39.7°F4.3°C 56% 6.0 mph NNW9.7 kmh NNW 14.0 mph22.5 kmh 29.67 in1004.7 mb 0.00 in0.0 mm 0.00 in0.0 mm 0.00 in0.0 mm
02:07 PM 55.1°F12.8°C 39.7°F4.3°C 56% 3.0 mph NW4.8 kmh NW 14.0 mph22.5 kmh 29.66 in1004.4 mb 0.00 in0.0 mm 0.00 in0.0 mm 0.00 in0.0 mm
02:12 PM 55.4°F13.0°C 40.0°F4.4°C 56% 3.0 mph NNW4.8 kmh NNW 14.0 mph22.5 kmh 29.66 in1004.4 mb 0.00 in0.0 mm 0.00 in0.0 mm 0.00 in0.0 mm
02:17 PM 55.8°F13.2°C 40.3°F4.6°C 56% 2.0 mph SW3.2 kmh SW 14.0 mph22.5 kmh 29.66 in1004.4 mb 0.00 in0.0 mm 0.00 in0.0 mm 0.00 in0.0 mm
02:22 PM 56.1°F13.4°C 40.2°F4.6°C 55% 1.0 mph N1.6 kmh N 10.0 mph16.1 kmh 29.67 in1004.7 mb 0.00 in0.0 mm 0.00 in0.0 mm 0.00 in0.0 mm
02:27 PM 55.9°F13.3°C 40.0°F4.4°C 55% 4.0 mph WSW6.4 kmh WSW 10.0 mph16.1 kmh 29.67 in1004.7 mb 0.00 in0.0 mm 0.00 in0.0 mm 0.00 in0.0 mm
02:32 PM 55.7°F13.2°C 39.8°F4.3°C 55% 4.0 mph SW6.4 kmh SW 10.0 mph16.1 kmh 29.67 in1004.7 mb 0.00 in0.0 mm 0.00 in0.0 mm 0.00 in0.0 mm
02:37 PM 55.8°F13.2°C 40.3°F4.6°C 56% 6.0 mph NW9.7 kmh NW 10.0 mph16.1 kmh 29.68 in1005.1 mb 0.00 in0.0 mm 0.00 in0.0 mm 0.00 in0.0 mm
02:42 PM 55.7°F13.2°C 40.2°F4.6°C 56% Calm Calm 9.0 mph14.5 kmh 29.68 in1005.1 mb 0.00 in0.0 mm 0.00 in0.0 mm 0.00 in0.0 mm
02:47 PM 55.5°F13.1°C 40.1°F4.5°C 56% 3.0 mph N4.8 kmh N 9.0 mph14.5 kmh 29.68 in1005.1 mb 0.00 in0.0 mm 0.00 in0.0 mm 0.00 in0.0 mm
02:52 PM 55.3°F12.9°C 39.9°F4.4°C 56% 3.0 mph WSW4.8 kmh WSW 8.0 mph12.9 kmh 29.68 in1005.1 mb 0.00 in0.0 mm 0.00 in0.0 mm 0.00 in0.0 mm
02:57 PM 55.1°F12.8°C 40.1°F4.5°C 57% 1.0 mph NW1.6 kmh NW 8.0 mph12.9 kmh 29.68 in1005.1 mb 0.00 in0.0 mm 0.00 in0.0 mm 0.00 in0.0 mm
03:02 PM 54.9°F12.7°C 39.5°F4.2°C 56% 3.0 mph WNW4.8 kmh WNW 15.0 mph24.1 kmh 29.69 in1005.4 mb 0.00 in0.0 mm 0.00 in0.0 mm 0.00 in0.0 mm
03:07 PM 54.7°F12.6°C 39.8°F4.3°C 57% Calm Calm 15.0 mph24.1 kmh 29.69 in1005.4 mb 0.00 in0.0 mm 0.00 in0.0 mm 0.00 in0.0 mm
03:12 PM 54.6°F12.6°C 39.7°F4.3°C 57% 2.0 mph NW3.2 kmh NW 15.0 mph24.1 kmh 29.69 in1005.4 mb 0.00 in0.0 mm 0.00 in0.0 mm 0.00 in0.0 mm
03:17 PM 54.6°F12.6°C 40.1°F4.5°C 58% Calm Calm 15.0 mph24.1 kmh 29.69 in1005.4 mb 0.00 in0.0 mm 0.00 in0.0 mm 0.00 in0.0 mm
03:22 PM 54.8°F12.7°C 40.3°F4.6°C 58% 2.0 mph NW3.2 kmh NW 12.0 mph19.3 kmh 29.69 in1005.4 mb 0.00 in0.0 mm 0.00 in0.0 mm 0.00 in0.0 mm
03:27 PM 54.8°F12.7°C 39.9°F4.4°C 57% 8.0 mph NNW12.9 kmh NNW 15.0 mph24.1 kmh 29.70 in1005.8 mb 0.00 in0.0 mm 0.00 in0.0 mm 0.00 in0.0 mm
03:32 PM 54.7°F12.6°C 40.2°F4.6°C 58% 5.0 mph NNW8.0 kmh NNW 18.0 mph29.0 kmh 29.70 in1005.8 mb 0.00 in0.0 mm 0.00 in0.0 mm 0.00 in0.0 mm
03:37 PM 54.5°F12.5°C 39.6°F4.2°C 57% 6.0 mph NNW9.7 kmh NNW 18.0 mph29.0 kmh 29.70 in1005.8 mb 0.00 in0.0 mm 0.00 in0.0 mm 0.00 in0.0 mm
03:42 PM 54.4°F12.4°C 39.5°F4.2°C 57% 11.0 mph NW17.7 kmh NW 18.0 mph29.0 kmh 29.70 in1005.8 mb 0.00 in0.0 mm 0.00 in0.0 mm 0.00 in0.0 mm
03:47 PM 54.4°F12.4°C 39.5°F4.2°C 57% 5.0 mph 8.0 kmh 18.0 mph29.0 kmh 29.70 in1005.8 mb 0.00 in0.0 mm 0.00 in0.0 mm 0.00 in0.0 mm
03:52 PM 54.6°F12.6°C 39.7°F4.3°C 57% 7.0 mph NE11.3 kmh NE 18.0 mph29.0 kmh 29.70 in1005.8 mb 0.00 in0.0 mm 0.00 in0.0 mm 0.00 in0.0 mm
03:57 PM 54.8°F12.7°C 39.4°F4.1°C 56% 9.0 mph NNW14.5 kmh NNW 18.0 mph29.0 kmh 29.70 in1005.8 mb 0.00 in0.0 mm 0.00 in0.0 mm 0.00 in0.0 mm
04:02 PM 55.0°F12.8°C 39.6°F4.2°C 56% 2.0 mph NW3.2 kmh NW 16.0 mph25.7 kmh 29.70 in1005.8 mb 0.00 in0.0 mm 0.00 in0.0 mm 0.00 in0.0 mm
04:07 PM 55.2°F12.9°C 39.8°F4.3°C 56% 4.0 mph NW6.4 kmh NW 16.0 mph25.7 kmh 29.70 in1005.8 mb 0.00 in0.0 mm 0.00 in0.0 mm 0.00 in0.0 mm
04:12 PM 55.2°F12.9°C 39.3°F4.1°C 55% 10.0 mph N16.1 kmh N 14.0 mph22.5 kmh 29.70 in1005.8 mb 0.00 in0.0 mm 0.00 in0.0 mm 0.00 in0.0 mm
04:17 PM 55.1°F12.8°C 39.7°F4.3°C 56% Calm Calm 14.0 mph22.5 kmh 29.71 in1006.1 mb 0.00 in0.0 mm 0.00 in0.0 mm 0.00 in0.0 mm
04:22 PM 55.1°F12.8°C 39.2°F4.0°C 55% 4.0 mph WNW6.4 kmh WNW 14.0 mph22.5 kmh 29.71 in1006.1 mb 0.00 in0.0 mm 0.00 in0.0 mm 0.00 in0.0 mm
04:27 PM 55.0°F12.8°C 39.1°F3.9°C 55% 7.0 mph NW11.3 kmh NW 20.0 mph32.2 kmh 29.71 in1006.1 mb 0.00 in0.0 mm 0.00 in0.0 mm 0.00 in0.0 mm
04:32 PM 55.0°F12.8°C 39.1°F3.9°C 55% 5.0 mph NW8.0 kmh NW 20.0 mph32.2 kmh 29.71 in1006.1 mb 0.00 in0.0 mm 0.00 in0.0 mm 0.00 in0.0 mm
04:37 PM 54.9°F12.7°C 39.0°F3.9°C 55% 3.0 mph WNW4.8 kmh WNW 20.0 mph32.2 kmh 29.71 in1006.1 mb 0.00 in0.0 mm 0.00 in0.0 mm 0.00 in0.0 mm
04:42 PM 54.9°F12.7°C 39.0°F3.9°C 55% 11.0 mph 17.7 kmh 20.0 mph32.2 kmh 29.71 in1006.1 mb 0.00 in0.0 mm 0.00 in0.0 mm 0.00 in0.0 mm
04:47 PM 54.9°F12.7°C 39.0°F3.9°C 55% 4.0 mph NNW6.4 kmh NNW 15.0 mph24.1 kmh 29.71 in1006.1 mb 0.00 in0.0 mm 0.00 in0.0 mm 0.00 in0.0 mm
04:52 PM 54.9°F12.7°C 39.5°F4.2°C 56% 5.0 mph NW8.0 kmh NW 15.0 mph24.1 kmh 29.71 in1006.1 mb 0.00 in0.0 mm 0.00 in0.0 mm 0.00 in0.0 mm
04:57 PM 54.8°F12.7°C 38.9°F3.8°C 55% 2.0 mph NW3.2 kmh NW 13.0 mph20.9 kmh 29.71 in1006.1 mb 0.00 in0.0 mm 0.00 in0.0 mm 0.00 in0.0 mm
05:02 PM 54.7°F12.6°C 39.3°F4.1°C 56% 1.0 mph NW1.6 kmh NW 13.0 mph20.9 kmh 29.71 in1006.1 mb 0.00 in0.0 mm 0.00 in0.0 mm 0.00 in0.0 mm
05:07 PM 54.5°F12.5°C 39.6°F4.2°C 57% Calm Calm 11.0 mph17.7 kmh 29.72 in1006.4 mb 0.00 in0.0 mm 0.00 in0.0 mm 0.00 in0.0 mm
05:12 PM 54.5°F12.5°C 39.6°F4.2°C 57% Calm Calm 11.0 mph17.7 kmh 29.72 in1006.4 mb 0.00 in0.0 mm 0.00 in0.0 mm 0.00 in0.0 mm
05:17 PM 54.5°F12.5°C 39.1°F3.9°C 56% 3.0 mph W4.8 kmh W 8.0 mph12.9 kmh 29.72 in1006.4 mb 0.00 in0.0 mm 0.00 in0.0 mm 0.00 in0.0 mm
05:22 PM 54.4°F12.4°C 39.5°F4.2°C 57% Calm Calm 10.0 mph16.1 kmh 29.72 in1006.4 mb 0.00 in0.0 mm 0.00 in0.0 mm 0.00 in0.0 mm
05:27 PM 54.4°F12.4°C 39.0°F3.9°C 56% Calm Calm 10.0 mph16.1 kmh 29.73 in1006.8 mb 0.00 in0.0 mm 0.00 in0.0 mm 0.00 in0.0 mm
05:32 PM 54.3°F12.4°C 39.4°F4.1°C 57% Calm Calm -- 29.73 in1006.8 mb 0.00 in0.0 mm 0.00 in0.0 mm 0.00 in0.0 mm
05:37 PM 54.2°F12.3°C 38.8°F3.8°C 56% 4.0 mph NNW6.4 kmh NNW 14.0 mph22.5 kmh 29.73 in1006.8 mb 0.00 in0.0 mm 0.00 in0.0 mm 0.00 in0.0 mm
05:42 PM 54.3°F12.4°C 38.5°F3.6°C 55% 2.0 mph WSW3.2 kmh WSW 14.0 mph22.5 kmh 29.73 in1006.8 mb 0.00 in0.0 mm 0.00 in0.0 mm 0.00 in0.0 mm
05:47 PM 54.2°F12.3°C 38.8°F3.8°C 56% Calm Calm 6.0 mph9.7 kmh 29.74 in1007.1 mb 0.00 in0.0 mm 0.00 in0.0 mm 0.00 in0.0 mm
05:52 PM 54.1°F12.3°C 38.8°F3.8°C 56% 2.0 mph NW3.2 kmh NW 11.0 mph17.7 kmh 29.74 in1007.1 mb 0.00 in0.0 mm 0.00 in0.0 mm 0.00 in0.0 mm
05:57 PM 54.1°F12.3°C 38.3°F3.5°C 55% 2.0 mph WNW3.2 kmh WNW 11.0 mph17.7 kmh 29.74 in1007.1 mb 0.00 in0.0 mm 0.00 in0.0 mm 0.00 in0.0 mm
06:02 PM 54.1°F12.3°C 38.3°F3.5°C 55% 9.0 mph NNW14.5 kmh NNW 14.0 mph22.5 kmh 29.74 in1007.1 mb 0.00 in0.0 mm 0.00 in0.0 mm 0.00 in0.0 mm
06:07 PM 54.1°F12.3°C 38.3°F3.5°C 55% 10.0 mph N16.1 kmh N 18.0 mph29.0 kmh 29.75 in1007.5 mb 0.00 in0.0 mm 0.00 in0.0 mm 0.00 in0.0 mm
06:12 PM 54.1°F12.3°C 38.3°F3.5°C 55% 4.0 mph NW6.4 kmh NW 18.0 mph29.0 kmh 29.74 in1007.1 mb 0.00 in0.0 mm 0.00 in0.0 mm 0.00 in0.0 mm
06:17 PM 54.0°F12.2°C 38.2°F3.4°C 55% Calm Calm 12.0 mph19.3 kmh 29.75 in1007.5 mb 0.00 in0.0 mm 0.00 in0.0 mm 0.00 in0.0 mm
06:22 PM 53.9°F12.2°C 38.1°F3.4°C 55% 2.0 mph WNW3.2 kmh WNW 12.0 mph19.3 kmh 29.75 in1007.5 mb 0.00 in0.0 mm 0.00 in0.0 mm 0.00 in0.0 mm
06:27 PM 53.9°F12.2°C 38.6°F3.7°C 56% Calm Calm 14.0 mph22.5 kmh 29.75 in1007.5 mb 0.00 in0.0 mm 0.00 in0.0 mm 0.00 in0.0 mm
06:32 PM 53.7°F12.1°C 37.9°F3.3°C 55% 2.0 mph NNW3.2 kmh NNW 14.0 mph22.5 kmh 29.75 in1007.5 mb 0.00 in0.0 mm 0.00 in0.0 mm 0.00 in0.0 mm
06:37 PM 53.7°F12.1°C 37.9°F3.3°C 55% 4.0 mph NNW6.4 kmh NNW 18.0 mph29.0 kmh 29.75 in1007.5 mb 0.00 in0.0 mm 0.00 in0.0 mm 0.00 in0.0 mm
06:42 PM 53.7°F12.1°C 37.9°F3.3°C 55% 7.0 mph NNW11.3 kmh NNW 18.0 mph29.0 kmh 29.75 in1007.5 mb 0.00 in0.0 mm 0.00 in0.0 mm 0.00 in0.0 mm
06:47 PM 53.7°F12.1°C 38.4°F3.6°C 56% 3.0 mph NNW4.8 kmh NNW 14.0 mph22.5 kmh 29.75 in1007.5 mb 0.00 in0.0 mm 0.00 in0.0 mm 0.00 in0.0 mm
06:52 PM 53.7°F12.1°C 37.9°F3.3°C 55% 2.0 mph NW3.2 kmh NW 14.0 mph22.5 kmh 29.75 in1007.5 mb 0.00 in0.0 mm 0.00 in0.0 mm 0.00 in0.0 mm
06:57 PM 53.7°F12.1°C 37.9°F3.3°C 55% 7.0 mph NW11.3 kmh NW 14.0 mph22.5 kmh 29.75 in1007.5 mb 0.00 in0.0 mm 0.00 in0.0 mm 0.00 in0.0 mm
07:02 PM 53.7°F12.1°C 37.9°F3.3°C 55% 6.0 mph 9.7 kmh 18.0 mph29.0 kmh 29.75 in1007.5 mb 0.00 in0.0 mm 0.00 in0.0 mm 0.00 in0.0 mm
07:07 PM 53.6°F12.0°C 37.8°F3.2°C 55% 1.0 mph NNW1.6 kmh NNW 18.0 mph29.0 kmh 29.75 in1007.5 mb 0.00 in0.0 mm 0.00 in0.0 mm 0.00 in0.0 mm
07:12 PM 53.4°F11.9°C 38.1°F3.4°C 56% 1.0 mph NNW1.6 kmh NNW 18.0 mph29.0 kmh 29.76 in1007.8 mb 0.00 in0.0 mm 0.00 in0.0 mm 0.00 in0.0 mm
07:17 PM 53.3°F11.8°C 38.0°F3.3°C 56% Calm Calm 18.0 mph29.0 kmh 29.76 in1007.8 mb 0.00 in0.0 mm 0.00 in0.0 mm 0.00 in0.0 mm
07:22 PM 53.2°F11.8°C 38.4°F3.6°C 57% Calm Calm -- 29.77 in1008.1 mb 0.00 in0.0 mm 0.00 in0.0 mm 0.00 in0.0 mm
07:27 PM 53.0°F11.7°C 38.2°F3.4°C 57% Calm Calm -- 29.77 in1008.1 mb 0.00 in0.0 mm 0.00 in0.0 mm 0.00 in0.0 mm
07:32 PM 53.1°F11.7°C 38.3°F3.5°C 57% 3.0 mph NNW4.8 kmh NNW 5.0 mph8.0 kmh 29.77 in1008.1 mb 0.00 in0.0 mm 0.00 in0.0 mm 0.00 in0.0 mm
07:37 PM 53.1°F11.7°C 38.3°F3.5°C 57% Calm Calm -- 29.77 in1008.1 mb 0.00 in0.0 mm 0.00 in0.0 mm 0.00 in0.0 mm
07:42 PM 52.8°F11.6°C 38.0°F3.3°C 57% Calm Calm -- 29.77 in1008.1 mb 0.00 in0.0 mm 0.00 in0.0 mm 0.00 in0.0 mm
07:47 PM 52.5°F11.4°C 38.2°F3.4°C 58% 1.0 mph NW1.6 kmh NW 4.0 mph6.4 kmh 29.77 in1008.1 mb 0.00 in0.0 mm 0.00 in0.0 mm 0.00 in0.0 mm
07:52 PM 52.3°F11.3°C 38.4°F3.6°C 59% Calm Calm 3.0 mph4.8 kmh 29.77 in1008.1 mb 0.00 in0.0 mm 0.00 in0.0 mm 0.00 in0.0 mm
07:57 PM 52.2°F11.2°C 38.3°F3.5°C 59% Calm Calm -- 29.77 in1008.1 mb 0.00 in0.0 mm 0.00 in0.0 mm 0.00 in0.0 mm
08:02 PM 52.1°F11.2°C 38.2°F3.4°C 59% Calm Calm -- 29.78 in1008.5 mb 0.00 in0.0 mm 0.00 in0.0 mm 0.00 in0.0 mm
08:07 PM 51.8°F11.0°C 38.4°F3.6°C 60% Calm Calm -- 29.78 in1008.5 mb 0.00 in0.0 mm 0.00 in0.0 mm 0.00 in0.0 mm
08:12 PM 51.6°F10.9°C 38.6°F3.7°C 61% Calm Calm 3.0 mph4.8 kmh 29.78 in1008.5 mb 0.00 in0.0 mm 0.00 in0.0 mm 0.00 in0.0 mm
08:17 PM 51.5°F10.8°C 38.5°F3.6°C 61% Calm Calm 4.0 mph6.4 kmh 29.78 in1008.5 mb 0.00 in0.0 mm 0.00 in0.0 mm 0.00 in0.0 mm
08:22 PM 51.5°F10.8°C 38.5°F3.6°C 61% Calm Calm -- 29.78 in1008.5 mb 0.00 in0.0 mm 0.00 in0.0 mm 0.00 in0.0 mm
08:27 PM 51.2°F10.7°C 38.6°F3.7°C 62% Calm Calm 1.0 mph1.6 kmh 29.78 in1008.5 mb 0.00 in0.0 mm 0.00 in0.0 mm 0.00 in0.0 mm
08:32 PM 51.1°F10.6°C 38.5°F3.6°C 62% Calm Calm -- 29.79 in1008.8 mb 0.00 in0.0 mm 0.00 in0.0 mm 0.00 in0.0 mm
08:37 PM 51.1°F10.6°C 38.5°F3.6°C 62% Calm Calm 4.0 mph6.4 kmh 29.79 in1008.8 mb 0.00 in0.0 mm 0.00 in0.0 mm 0.00 in0.0 mm
08:42 PM 50.9°F10.5°C 38.3°F3.5°C 62% 2.0 mph NNW3.2 kmh NNW 2.0 mph3.2 kmh 29.79 in1008.8 mb 0.00 in0.0 mm 0.00 in0.0 mm 0.00 in0.0 mm
08:47 PM 51.0°F10.6°C 38.4°F3.6°C 62% Calm Calm 2.0 mph3.2 kmh 29.79 in1008.8 mb 0.00 in0.0 mm 0.00 in0.0 mm 0.00 in0.0 mm
08:52 PM 51.1°F10.6°C 38.5°F3.6°C 62% Calm Calm 6.0 mph9.7 kmh 29.79 in1008.8 mb 0.00 in0.0 mm 0.00 in0.0 mm 0.00 in0.0 mm
08:57 PM 51.2°F10.7°C 38.2°F3.4°C 61% Calm Calm -- 29.80 in1009.1 mb 0.00 in0.0 mm 0.00 in0.0 mm 0.00 in0.0 mm
09:02 PM 51.3°F10.7°C 38.3°F3.5°C 61% Calm Calm -- 29.80 in1009.1 mb 0.00 in0.0 mm 0.00 in0.0 mm 0.00 in0.0 mm
09:07 PM 51.3°F10.7°C 38.3°F3.5°C 61% Calm Calm -- 29.80 in1009.1 mb 0.00 in0.0 mm 0.00 in0.0 mm 0.00 in0.0 mm
09:12 PM 51.5°F10.8°C 38.1°F3.4°C 60% 6.0 mph N9.7 kmh N 13.0 mph20.9 kmh 29.80 in1009.1 mb 0.00 in0.0 mm 0.00 in0.0 mm 0.00 in0.0 mm
09:17 PM 51.7°F10.9°C 38.3°F3.5°C 60% 7.0 mph N11.3 kmh N 13.0 mph20.9 kmh 29.80 in1009.1 mb 0.00 in0.0 mm 0.00 in0.0 mm 0.00 in0.0 mm
09:22 PM 51.8°F11.0°C 37.5°F3.1°C 58% Calm Calm 13.0 mph20.9 kmh 29.80 in1009.1 mb 0.00 in0.0 mm 0.00 in0.0 mm 0.00 in0.0 mm
09:27 PM 52.0°F11.1°C 37.2°F2.9°C 57% 12.0 mph NW19.3 kmh NW 13.0 mph20.9 kmh 29.79 in1008.8 mb 0.00 in0.0 mm 0.00 in0.0 mm 0.00 in0.0 mm
09:32 PM 52.0°F11.1°C 37.2°F2.9°C 57% 8.0 mph NW12.9 kmh NW 21.0 mph33.8 kmh 29.79 in1008.8 mb 0.00 in0.0 mm 0.00 in0.0 mm 0.00 in0.0 mm
09:37 PM 52.1°F11.2°C 36.9°F2.7°C 56% 5.0 mph NNW8.0 kmh NNW 25.0 mph40.2 kmh 29.80 in1009.1 mb 0.00 in0.0 mm 0.00 in0.0 mm 0.00 in0.0 mm
09:42 PM 52.1°F11.2°C 36.9°F2.7°C 56% 3.0 mph N4.8 kmh N 25.0 mph40.2 kmh 29.80 in1009.1 mb 0.00 in0.0 mm 0.00 in0.0 mm 0.00 in0.0 mm
09:47 PM 52.0°F11.1°C 36.8°F2.7°C 56% 8.0 mph N12.9 kmh N 25.0 mph40.2 kmh 29.80 in1009.1 mb 0.00 in0.0 mm 0.00 in0.0 mm 0.00 in0.0 mm
09:52 PM 52.1°F11.2°C 36.4°F2.4°C 55% 2.0 mph NW3.2 kmh NW 25.0 mph40.2 kmh 29.79 in1008.8 mb 0.00 in0.0 mm 0.00 in0.0 mm 0.00 in0.0 mm
09:57 PM 52.1°F11.2°C 36.4°F2.4°C 55% 3.0 mph NW4.8 kmh NW 24.0 mph38.6 kmh 29.80 in1009.1 mb 0.00 in0.0 mm 0.00 in0.0 mm 0.00 in0.0 mm
10:02 PM 52.0°F11.1°C 36.3°F2.4°C 55% 3.0 mph WNW4.8 kmh WNW 24.0 mph38.6 kmh 29.79 in1008.8 mb 0.00 in0.0 mm 0.00 in0.0 mm 0.00 in0.0 mm
10:07 PM 51.9°F11.1°C 36.2°F2.3°C 55% 3.0 mph NW4.8 kmh NW 18.0 mph29.0 kmh 29.80 in1009.1 mb 0.00 in0.0 mm 0.00 in0.0 mm 0.00 in0.0 mm
10:12 PM 51.8°F11.0°C 36.2°F2.3°C 55% 2.0 mph NNW3.2 kmh NNW 18.0 mph29.0 kmh 29.80 in1009.1 mb 0.00 in0.0 mm 0.00 in0.0 mm 0.00 in0.0 mm
10:17 PM 51.8°F11.0°C 36.2°F2.3°C 55% 5.0 mph N8.0 kmh N 16.0 mph25.7 kmh 29.81 in1009.5 mb 0.00 in0.0 mm 0.00 in0.0 mm 0.00 in0.0 mm
10:22 PM 51.7°F10.9°C 36.1°F2.3°C 55% 8.0 mph NNW12.9 kmh NNW 16.0 mph25.7 kmh 29.81 in1009.5 mb 0.00 in0.0 mm 0.00 in0.0 mm 0.00 in0.0 mm
10:27 PM 51.6°F10.9°C 36.0°F2.2°C 55% 2.0 mph WSW3.2 kmh WSW 15.0 mph24.1 kmh 29.81 in1009.5 mb 0.00 in0.0 mm 0.00 in0.0 mm 0.00 in0.0 mm
10:32 PM 51.5°F10.8°C 36.3°F2.4°C 56% 2.0 mph NNW3.2 kmh NNW 15.0 mph24.1 kmh 29.80 in1009.1 mb 0.00 in0.0 mm 0.00 in0.0 mm 0.00 in0.0 mm
10:37 PM 51.3°F10.7°C 36.1°F2.3°C 56% Calm Calm 14.0 mph22.5 kmh 29.81 in1009.5 mb 0.00 in0.0 mm 0.00 in0.0 mm 0.00 in0.0 mm
10:42 PM 51.2°F10.7°C 36.0°F2.2°C 56% Calm Calm -- 29.81 in1009.5 mb 0.00 in0.0 mm 0.00 in0.0 mm 0.00 in0.0 mm
10:47 PM 51.0°F10.6°C 36.3°F2.4°C 57% Calm Calm -- 29.81 in1009.5 mb 0.00 in0.0 mm 0.00 in0.0 mm 0.00 in0.0 mm
10:52 PM 50.8°F10.4°C 36.1°F2.3°C 57% Calm Calm -- 29.82 in1009.8 mb 0.00 in0.0 mm 0.00 in0.0 mm 0.00 in0.0 mm
10:57 PM 50.8°F10.4°C 36.1°F2.3°C 57% 3.0 mph NNW4.8 kmh NNW 6.0 mph9.7 kmh 29.82 in1009.8 mb 0.00 in0.0 mm 0.00 in0.0 mm 0.00 in0.0 mm
11:02 PM 50.8°F10.4°C 36.1°F2.3°C 57% 4.0 mph N6.4 kmh N 8.0 mph12.9 kmh 29.81 in1009.5 mb 0.00 in0.0 mm 0.00 in0.0 mm 0.00 in0.0 mm
11:07 PM 50.7°F10.4°C 36.0°F2.2°C 57% Calm Calm 8.0 mph12.9 kmh 29.81 in1009.5 mb 0.00 in0.0 mm 0.00 in0.0 mm 0.00 in0.0 mm
11:12 PM 50.5°F10.3°C 35.8°F2.1°C 57% 1.0 mph NW1.6 kmh NW 7.0 mph11.3 kmh 29.81 in1009.5 mb 0.00 in0.0 mm 0.00 in0.0 mm 0.00 in0.0 mm
11:17 PM 50.5°F10.3°C 35.8°F2.1°C 57% 2.0 mph NW3.2 kmh NW 2.0 mph3.2 kmh 29.82 in1009.8 mb 0.00 in0.0 mm 0.00 in0.0 mm 0.00 in0.0 mm
11:22 PM 50.5°F10.3°C 35.8°F2.1°C 57% Calm Calm 4.0 mph6.4 kmh 29.82 in1009.8 mb 0.00 in0.0 mm 0.00 in0.0 mm 0.00 in0.0 mm
11:27 PM 50.4°F10.2°C 35.7°F2.1°C 57% Calm Calm 3.0 mph4.8 kmh 29.82 in1009.8 mb 0.00 in0.0 mm 0.00 in0.0 mm 0.00 in0.0 mm
11:32 PM 50.2°F10.1°C 36.0°F2.2°C 58% 7.0 mph NNW11.3 kmh NNW 7.0 mph11.3 kmh 29.82 in1009.8 mb 0.00 in0.0 mm 0.00 in0.0 mm 0.00 in0.0 mm
11:37 PM 50.1°F10.1°C 35.9°F2.2°C 58% Calm Calm 3.0 mph4.8 kmh 29.81 in1009.5 mb 0.00 in0.0 mm 0.00 in0.0 mm 0.00 in0.0 mm
11:42 PM 50.0°F10.0°C 35.8°F2.1°C 58% Calm Calm 3.0 mph4.8 kmh 29.81 in1009.5 mb 0.00 in0.0 mm 0.00 in0.0 mm 0.00 in0.0 mm
11:47 PM 49.9°F9.9°C 35.7°F2.1°C 58% Calm Calm 2.0 mph3.2 kmh 29.82 in1009.8 mb 0.00 in0.0 mm 0.00 in0.0 mm 0.00 in0.0 mm
11:52 PM 49.7°F9.8°C 36.0°F2.2°C 59% Calm Calm -- 29.82 in1009.8 mb 0.00 in0.0 mm 0.00 in0.0 mm 0.00 in0.0 mm
11:57 PM 49.6°F9.8°C 35.4°F1.9°C 58% Calm Calm 2.0 mph3.2 kmh 29.82 in1009.8 mb 0.00 in0.0 mm 0.00 in0.0 mm 0.00 in0.0 mm